Time;durP1;ratioP1;P1;durP2;ratioP2;P2;SDS_P1;SDS_P2;PMS_P1;PMS_P2;Temp;Humidity;BMP_temperature;BMP_pressure;BME280_temperature;BME280_humidity;BME280_pressure;Samples;Min_cycle;Max_cycle;Signal;HPM_P1;HPM_P2
2023/01/24 00:00:54;;;;;;;22.85;10.93;;;;;;;2.06;100.00;100242.56;5041818;28;20030;-74
2023/01/24 00:03:20;;;;;;;23.70;10.95;;;;;;;1.86;100.00;100217.34;5027489;28;20032;-73
2023/01/24 00:05:47;;;;;;;23.52;11.05;;;;;;;1.98;100.00;100240.44;5039791;28;20029;-73
2023/01/24 00:08:14;;;;;;;21.58;11.07;;;;;;;2.01;100.00;100244.72;5035010;28;20068;-74
2023/01/24 00:10:40;;;;;;;20.70;10.23;;;;;;;2.00;100.00;100226.16;5050306;28;20422;-73
2023/01/24 00:13:09;;;;;;;25.00;11.45;;;;;;;1.95;100.00;100227.34;5061158;28;20079;-73
2023/01/24 00:15:34;;;;;;;23.13;10.68;;;;;;;1.94;100.00;100233.66;5028457;28;20049;-74
2023/01/24 00:18:00;;;;;;;28.15;11.60;;;;;;;1.86;100.00;100227.16;5041048;28;20091;-74
2023/01/24 00:20:25;;;;;;;26.70;11.15;;;;;;;1.96;100.00;100230.84;5028597;28;20426;-73
2023/01/24 00:22:51;;;;;;;22.40;10.25;;;;;;;2.12;100.00;100235.91;5032335;28;20099;-74
2023/01/24 00:25:16;;;;;;;23.35;10.30;;;;;;;2.10;100.00;100238.72;5048203;28;20021;-73
2023/01/24 00:27:42;;;;;;;23.63;11.20;;;;;;;2.08;100.00;100245.13;5055063;28;20483;-74
2023/01/24 00:30:08;;;;;;;30.27;13.25;;;;;;;1.99;100.00;100235.97;5047546;28;20057;-74
2023/01/24 00:32:33;;;;;;;26.10;11.20;;;;;;;1.96;100.00;100210.38;5037999;28;20028;-73
2023/01/24 00:34:58;;;;;;;23.42;10.18;;;;;;;2.03;100.00;100225.94;5053465;28;20017;-74
2023/01/24 00:37:24;;;;;;;21.63;9.85;;;;;;;2.00;100.00;100237.69;5051966;28;20089;-74
2023/01/24 00:39:49;;;;;;;26.13;10.80;;;;;;;1.93;100.00;100229.25;5048555;28;20021;-74
2023/01/24 00:42:15;;;;;;;22.00;10.60;;;;;;;1.88;100.00;100212.72;5044215;28;20025;-74
2023/01/24 00:44:40;;;;;;;21.67;10.32;;;;;;;1.90;100.00;100218.81;5057610;28;20033;-74
2023/01/24 00:47:05;;;;;;;23.33;10.45;;;;;;;1.96;100.00;100225.50;5031342;28;20037;-74
2023/01/24 00:49:31;;;;;;;23.02;10.15;;;;;;;1.94;100.00;100232.81;5059247;28;20047;-74
2023/01/24 00:51:56;;;;;;;24.73;10.63;;;;;;;1.83;100.00;100224.72;5033337;28;20100;-73
2023/01/24 00:54:21;;;;;;;23.05;11.15;;;;;;;2.01;100.00;100244.72;5026573;28;20044;-73
2023/01/24 00:56:46;;;;;;;22.67;9.95;;;;;;;1.96;100.00;100246.88;5037346;28;20031;-73
2023/01/24 00:59:12;;;;;;;22.23;9.00;;;;;;;1.93;100.00;100247.09;5047332;28;20037;-74
2023/01/24 01:01:37;;;;;;;19.98;9.63;;;;;;;2.06;100.00;100252.38;5052289;28;20021;-73
2023/01/24 01:04:03;;;;;;;21.58;10.63;;;;;;;2.02;100.00;100250.91;5036728;28;20471;-73
2023/01/24 01:06:28;;;;;;;23.85;10.50;;;;;;;1.88;100.00;100233.25;5028407;28;20074;-73
2023/01/24 01:08:53;;;;;;;23.42;10.10;;;;;;;1.98;100.00;100242.28;5049943;28;20032;-73
2023/01/24 01:11:19;;;;;;;21.30;10.43;;;;;;;2.00;100.00;100237.69;5044726;28;20078;-73
2023/01/24 01:13:48;;;;;;;21.95;9.75;;;;;;;2.09;100.00;100241.47;5031245;28;20371;-74
2023/01/24 01:16:16;;;;;;;20.92;10.63;;;;;;;1.93;100.00;100229.25;5046353;28;20506;-74
2023/01/24 01:18:42;;;;;;;25.38;11.23;;;;;;;2.03;100.00;100241.94;5033199;28;20040;-73
2023/01/24 01:21:11;;;;;;;22.85;10.02;;;;;;;1.89;100.00;100233.13;5048738;28;20021;-74
2023/01/24 01:23:36;;;;;;;28.70;10.77;;;;;;;1.84;100.00;100229.09;5029603;28;20047;-74
2023/01/24 01:26:05;;;;;;;24.25;10.40;;;;;;;1.87;100.00;100242.22;5039876;28;20028;-74
2023/01/24 01:28:31;;;;;;;22.25;10.15;;;;;;;1.81;100.00;100238.19;5054893;28;20024;-73
2023/01/24 01:30:56;;;;;;;22.25;9.98;;;;;;;1.90;100.00;100244.66;5029858;28;20029;-73
2023/01/24 01:33:22;;;;;;;18.58;8.68;;;;;;;1.92;100.00;100251.59;5031709;28;20534;-73
2023/01/24 01:35:49;;;;;;;23.42;10.25;;;;;;;1.72;100.00;100226.34;5026513;28;20030;-73
2023/01/24 01:38:15;;;;;;;24.30;10.93;;;;;;;1.84;100.00;100243.28;5030518;28;20025;-74
2023/01/24 01:40:40;;;;;;;21.83;9.68;;;;;;;1.84;100.00;100242.44;5037089;28;20385;-74
2023/01/24 01:43:13;;;;;;;24.23;10.32;;;;;;;1.79;100.00;100229.44;5027460;28;20037;-73
2023/01/24 01:45:47;;;;;;;22.10;10.32;;;;;;;1.82;100.00;100247.03;5053938;28;20501;-74
2023/01/24 01:48:22;;;;;;;22.67;10.43;;;;;;;1.82;100.00;100260.38;5036065;28;20017;-73
2023/01/24 01:50:56;;;;;;;20.88;9.43;;;;;;;1.69;100.00;100239.06;5045829;28;20035;-74
2023/01/24 01:53:24;;;;;;;21.10;9.82;;;;;;;1.81;100.00;100253.31;5051598;28;20025;-73
2023/01/24 01:55:57;;;;;;;22.37;9.77;;;;;;;1.76;100.00;100259.00;5049242;28;20029;-73
2023/01/24 01:58:23;;;;;;;21.60;10.18;;;;;;;1.75;100.00;100243.94;5035448;28;20291;-73
2023/01/24 02:00:50;;;;;;;23.33;9.75;;;;;;;1.69;100.00;100236.41;5050315;28;20025;-74
2023/01/24 02:03:40;;;;;;;20.90;9.57;;;;;;;1.75;100.00;100257.28;5035550;28;20025;-73
2023/01/24 02:06:12;;;;;;;24.25;11.30;;;;;;;1.79;100.00;100264.13;5042526;28;20036;-74
2023/01/24 02:08:40;;;;;;;24.33;10.45;;;;;;;1.79;100.00;100256.13;5052322;28;20021;-74
2023/01/24 02:16:01;;;;;;;24.15;10.07;;;;;;;1.82;100.00;100261.22;5045078;28;20514;-73
2023/01/24 02:16:38;;;;;;;24.77;11.07;;;;;;;1.90;100.00;100279.34;5048331;28;20112;-73
2023/01/24 02:19:03;;;;;;;27.08;10.93;;;;;;;1.82;100.00;100269.22;5045373;28;20763;-74
2023/01/24 02:21:29;;;;;;;19.67;9.60;;;;;;;1.89;100.00;100270.50;5023711;28;20029;-73
2023/01/24 02:24:12;;;;;;;28.98;10.90;;;;;;;1.78;100.00;100269.56;5024443;28;20040;-74
2023/01/24 02:26:37;;;;;;;23.98;11.05;;;;;;;1.81;100.00;100270.22;5048737;28;20025;-74
2023/01/24 02:29:10;;;;;;;23.55;9.68;;;;;;;1.90;100.00;100282.03;5027969;28;20042;-73
2023/01/24 02:31:57;;;;;;;22.10;9.85;;;;;;;1.81;100.00;100275.53;5043808;28;20025;-73
2023/01/24 02:34:23;;;;;;;21.48;10.60;;;;;;;1.86;100.00;100284.06;5031649;28;20025;-74
2023/01/24 02:37:12;;;;;;;27.20;10.48;;;;;;;1.88;100.00;100292.78;5032195;28;20103;-74
2023/01/24 02:39:49;;;;;;;25.80;10.05;;;;;;;1.85;100.00;100303.69;5024960;28;20044;-73
2023/01/24 02:42:20;;;;;;;23.80;10.75;;;;;;;1.50;100.00;100240.41;5053209;28;20020;-73
2023/01/24 02:45:23;;;;;;;25.05;10.57;;;;;;;1.89;100.00;100302.53;5053639;28;20494;-74
2023/01/24 02:47:50;;;;;;;24.30;11.05;;;;;;;1.87;100.00;100301.78;5048569;28;20063;-74
2023/01/24 02:50:18;;;;;;;25.40;11.15;;;;;;;1.69;100.00;100285.28;5048585;28;20032;-74
2023/01/24 02:55:28;;;;;;;26.15;10.88;;;;;;;1.74;100.00;100307.13;5044740;28;20548;-74
2023/01/24 02:58:06;;;;;;;25.38;10.55;;;;;;;1.64;100.00;100289.22;5043942;28;20037;-71
2023/01/24 03:00:34;;;;;;;22.48;11.10;;;;;;;1.82;100.00;100311.09;5043934;28;20029;-71
2023/01/24 03:02:59;;;;;;;24.50;10.93;;;;;;;1.82;100.00;100303.06;5052363;28;20064;-74
2023/01/24 03:05:25;;;;;;;27.35;10.77;;;;;;;1.88;100.00;100297.28;5033105;28;20103;-74
2023/01/24 03:07:50;;;;;;;21.63;10.70;;;;;;;1.78;100.00;100278.41;5042434;28;20029;-74
2023/01/24 03:10:17;;;;;;;20.77;9.38;;;;;;;1.84;100.00;100291.31;5052279;28;20021;-74
2023/01/24 03:34:50;;;;;;;25.65;10.25;;;;;;;1.63;100.00;100287.53;5047096;28;20074;-72
2023/01/24 03:39:53;;;;;;;20.85;10.73;;;;;;;1.73;100.00;100307.28;5083048;22;20052;-69
2023/01/24 03:40:06;;;;;;;28.08;11.38;;;;;;;1.69;100.00;100303.94;5060861;28;20143;-69
2023/01/24 03:42:32;;;;;;;23.00;10.35;;;;;;;1.71;100.00;100301.19;5037948;28;20442;-69
2023/01/24 03:44:57;;;;;;;20.60;10.52;;;;;;;1.77;100.00;100306.06;5043521;28;20032;-69
2023/01/24 03:47:29;;;;;;;24.50;10.13;;;;;;;1.80;100.00;100305.00;5037535;28;20024;-69
2023/01/24 03:52:38;;;;;;;23.65;10.07;;;;;;;1.65;100.00;100290.94;5057446;28;20039;-69
2023/01/24 03:55:04;;;;;;;25.15;10.63;;;;;;;1.74;100.00;100303.63;5038860;28;20071;-69
2023/01/24 03:57:29;;;;;;;24.77;10.95;;;;;;;1.72;100.00;100316.22;5038531;28;20464;-69
2023/01/24 03:59:55;;;;;;;22.58;10.50;;;;;;;1.72;100.00;100309.06;5018979;28;20032;-69
2023/01/24 04:02:21;;;;;;;26.95;11.05;;;;;;;1.74;100.00;100309.81;5044359;28;20028;-69
2023/01/24 04:07:31;;;;;;;24.55;10.70;;;;;;;1.79;100.00;100306.81;5076090;28;20070;-69
2023/01/24 04:09:58;;;;;;;27.75;11.32;;;;;;;1.74;100.00;100307.13;5035112;28;20025;-69
2023/01/24 04:12:24;;;;;;;26.25;11.15;;;;;;;1.72;100.00;100303.72;5044234;28;20021;-69
2023/01/24 04:14:49;;;;;;;23.63;11.20;;;;;;;1.72;100.00;100298.38;5031040;28;20036;-69
2023/01/24 04:17:15;;;;;;;25.52;11.15;;;;;;;1.73;100.00;100304.59;5030139;28;20392;-69
2023/01/24 04:19:40;;;;;;;27.10;10.98;;;;;;;1.67;100.00;100299.69;5025859;28;20032;-69
2023/01/24 04:22:05;;;;;;;24.90;10.90;;;;;;;1.69;100.00;100298.59;5056507;28;20150;-69
2023/01/24 04:24:31;;;;;;;28.77;10.95;;;;;;;1.62;100.00;100296.50;5056684;28;20029;-69
2023/01/24 04:26:56;;;;;;;27.10;10.30;;;;;;;1.69;100.00;100295.09;5037410;28;20400;-69
2023/01/24 04:29:21;;;;;;;24.20;11.35;;;;;;;1.65;100.00;100290.94;5024380;28;20227;-69
2023/01/24 04:31:47;;;;;;;25.73;11.00;;;;;;;1.65;100.00;100299.81;5035007;28;20086;-69
2023/01/24 04:34:12;;;;;;;25.38;10.55;;;;;;;1.65;100.00;100290.94;5042784;28;20021;-69
2023/01/24 04:36:37;;;;;;;27.10;11.75;;;;;;;1.60;100.00;100299.28;5039570;28;20032;-69
2023/01/24 04:39:03;;;;;;;24.98;11.63;;;;;;;1.58;100.00;100297.69;5031047;28;20036;-69
2023/01/24 04:41:29;;;;;;;24.40;11.20;;;;;;;1.60;100.00;100301.06;5042461;28;20123;-66
2023/01/24 04:43:54;;;;;;;28.60;11.23;;;;;;;1.61;100.00;100303.66;5052216;28;20036;-66
2023/01/24 04:46:20;;;;;;;26.27;11.27;;;;;;;1.60;100.00;100301.94;5031092;28;20465;-66
2023/01/24 04:48:48;;;;;;;24.10;11.00;;;;;;;1.64;100.00;100305.25;5042426;28;20052;-67
2023/01/24 04:51:13;;;;;;;28.00;11.73;;;;;;;1.61;100.00;100306.31;5030140;28;20044;-66
2023/01/24 04:53:40;;;;;;;25.48;11.18;;;;;;;1.59;100.00;100308.22;5046037;28;20017;-66
2023/01/24 04:56:06;;;;;;;25.90;11.23;;;;;;;1.52;100.00;100306.97;5036674;28;20078;-66
2023/01/24 04:58:32;;;;;;;27.55;11.57;;;;;;;1.62;100.00;100313.34;5054628;28;20044;-66
2023/01/24 05:00:58;;;;;;;25.38;10.80;;;;;;;1.63;100.00;100319.56;5047816;28;20029;-65
2023/01/24 05:03:23;;;;;;;26.30;10.70;;;;;;;1.63;100.00;100325.75;5035562;28;20502;-65
2023/01/24 05:05:52;;;;;;;24.15;10.98;;;;;;;1.70;100.00;100321.69;5037265;28;20100;-65
2023/01/24 05:08:17;;;;;;;26.57;10.67;;;;;;;1.67;100.00;100327.22;5036838;28;20035;-65
2023/01/24 05:10:43;;;;;;;24.83;11.15;;;;;;;1.61;100.00;100327.66;5044502;28;20279;-65
2023/01/24 05:13:08;;;;;;;26.33;10.32;;;;;;;1.72;100.00;100325.06;5062793;28;20029;-65
2023/01/24 05:15:36;;;;;;;23.38;11.10;;;;;;;1.70;100.00;100332.34;5021077;28;20030;-65
2023/01/24 05:18:02;;;;;;;27.58;11.98;;;;;;;1.72;100.00;100326.88;5030828;28;20028;-65
2023/01/24 05:20:28;;;;;;;28.35;11.43;;;;;;;1.64;100.00;100329.25;5030249;28;20033;-65
2023/01/24 05:22:57;;;;;;;28.02;10.80;;;;;;;1.65;100.00;100333.59;5042703;28;20031;-65
2023/01/24 05:25:24;;;;;;;24.48;10.95;;;;;;;1.61;100.00;100335.66;5020068;28;20017;-65
2023/01/24 05:27:50;;;;;;;24.45;10.60;;;;;;;1.64;100.00;100342.59;5021278;28;20124;-65
2023/01/24 05:30:16;;;;;;;23.83;11.13;;;;;;;1.60;100.00;100341.09;5028039;28;20023;-65
2023/01/24 05:32:41;;;;;;;27.25;11.07;;;;;;;1.64;100.00;100337.25;5034890;28;20331;-65
2023/01/24 05:35:13;;;;;;;26.30;11.27;;;;;;;1.64;100.00;100345.25;5034038;28;20202;-65
2023/01/24 05:37:39;;;;;;;27.40;11.50;;;;;;;1.64;100.00;100335.44;5031948;28;20025;-66
2023/01/24 05:40:08;;;;;;;29.23;10.73;;;;;;;1.69;100.00;100348.44;5028796;28;20438;-66
2023/01/24 05:42:33;;;;;;;25.10;11.52;;;;;;;1.68;100.00;100339.59;5042002;28;20541;-66
2023/01/24 05:44:59;;;;;;;29.80;11.75;;;;;;;1.71;100.00;100347.38;5034541;28;20041;-66
2023/01/24 05:47:24;;;;;;;27.75;11.85;;;;;;;1.71;100.00;100350.06;5026029;28;20025;-66
2023/01/24 05:49:51;;;;;;;27.75;11.32;;;;;;;1.75;100.00;100348.00;5042388;28;20025;-66
2023/01/24 05:52:20;;;;;;;28.90;11.57;;;;;;;1.72;100.00;100349.06;5045566;28;20055;-66
2023/01/24 05:54:48;;;;;;;27.55;11.52;;;;;;;1.77;100.00;100348.75;5034909;28;20453;-66
2023/01/24 05:57:14;;;;;;;28.42;11.45;;;;;;;1.71;100.00;100355.38;5044521;28;20037;-66
2023/01/24 05:59:55;;;;;;;28.45;10.88;;;;;;;1.72;100.00;100351.75;5044592;28;20045;-65
2023/01/24 06:02:35;;;;;;;29.75;11.38;;;;;;;1.72;100.00;100349.06;5040756;28;20115;-66
2023/01/24 06:05:00;;;;;;;30.00;11.02;;;;;;;1.82;100.00;100362.63;5035355;28;20026;-66
2023/01/24 06:07:25;;;;;;;27.92;12.00;;;;;;;1.86;100.00;100361.47;5039723;28;20081;-66
2023/01/24 06:09:51;;;;;;;25.88;12.20;;;;;;;1.81;100.00;100362.72;5034530;28;20033;-66
2023/01/24 06:12:18;;;;;;;26.60;11.13;;;;;;;1.95;100.00;100374.13;5033432;28;20025;-66
2023/01/24 06:14:43;;;;;;;27.35;11.65;;;;;;;1.84;100.00;100376.72;5034334;28;20025;-66
2023/01/24 06:17:09;;;;;;;28.52;11.80;;;;;;;1.83;100.00;100374.16;5036412;28;20078;-66
2023/01/24 06:19:35;;;;;;;29.25;11.93;;;;;;;1.72;100.00;100345.56;5034520;28;20052;-66
2023/01/24 06:22:48;;;;;;;26.40;11.13;;;;;;;1.85;100.00;100362.41;5037281;28;20117;-66
2023/01/24 06:25:26;;;;;;;24.95;10.82;;;;;;;1.78;100.00;100373.63;5032973;28;20038;-69
2023/01/24 06:27:52;;;;;;;27.15;10.40;;;;;;;1.72;100.00;100381.09;5027426;28;20071;-69
2023/01/24 06:30:19;;;;;;;27.83;10.98;;;;;;;1.71;100.00;100391.91;5035167;28;20135;-69
2023/01/24 06:33:06;;;;;;;24.38;11.05;;;;;;;1.74;100.00;100383.66;5030555;28;20141;-69
2023/01/24 06:35:58;;;;;;;34.35;11.70;;;;;;;1.69;100.00;100388.47;5033005;28;20056;-69
2023/01/24 06:38:25;;;;;;;28.42;11.88;;;;;;;1.64;100.00;100388.78;5032174;28;20041;-68
2023/01/24 06:41:15;;;;;;;27.17;11.07;;;;;;;1.65;100.00;100400.31;5034101;28;20036;-69
2023/01/24 06:43:41;;;;;;;30.13;11.95;;;;;;;1.66;100.00;100399.38;5036003;28;20124;-69
2023/01/24 06:46:08;;;;;;;31.45;12.35;;;;;;;1.61;100.00;100401.50;5025934;28;20040;-69
2023/01/24 06:48:34;;;;;;;29.65;12.45;;;;;;;1.65;100.00;100408.31;5028258;28;20025;-69
2023/01/24 06:50:59;;;;;;;32.17;13.13;;;;;;;1.65;100.00;100400.31;5037734;28;20075;-69
2023/01/24 06:53:25;;;;;;;28.40;11.85;;;;;;;1.68;100.00;100402.78;5035502;28;20079;-69
2023/01/24 06:55:50;;;;;;;26.10;11.30;;;;;;;1.71;100.00;100405.22;5044256;28;20032;-69
2023/01/24 06:58:15;;;;;;;29.88;12.40;;;;;;;1.66;100.00;100408.22;5042760;28;20028;-69
2023/01/24 07:00:41;;;;;;;29.40;12.30;;;;;;;1.52;100.00;100398.50;5030184;28;20025;-69
2023/01/24 07:03:07;;;;;;;29.33;11.75;;;;;;;1.62;100.00;100411.19;5027798;28;20366;-69
2023/01/24 07:05:34;;;;;;;24.30;10.48;;;;;;;1.71;100.00;100416.75;5025087;28;20120;-69
2023/01/24 07:08:02;;;;;;;26.88;11.48;;;;;;;1.75;100.00;100412.03;5031763;28;20025;-69
2023/01/24 07:10:28;;;;;;;19.83;8.15;;;;;;;1.73;100.00;100416.66;5040225;28;20027;-69
2023/01/24 07:13:01;;;;;;;24.00;11.07;;;;;;;1.74;100.00;100418.34;5036309;28;20449;-69
2023/01/24 07:15:26;;;;;;;25.98;11.02;;;;;;;1.74;100.00;100418.34;5036359;28;20132;-69
2023/01/24 07:17:56;;;;;;;25.63;11.80;;;;;;;1.74;100.00;100413.03;5025363;28;20564;-69
2023/01/24 07:20:21;;;;;;;;;;;;;;;1.75;100.00;100425.38;5031341;28;20124;-69
2023/01/24 07:22:47;;;;;;;24.50;10.38;;;;;;;1.77;100.00;100423.47;5047953;28;20410;-69
2023/01/24 07:25:20;;;;;;;22.27;10.63;;;;;;;1.83;100.00;100423.03;5021504;28;20030;-69
2023/01/24 07:27:46;;;;;;;27.60;11.15;;;;;;;1.83;100.00;100415.03;5033492;28;20020;-69
2023/01/24 07:30:12;;;;;;;26.58;11.05;;;;;;;1.82;100.00;100416.00;5034252;28;20495;-69
2023/01/24 07:32:38;;;;;;;28.65;11.00;;;;;;;1.88;100.00;100425.38;5040639;28;20033;-69
2023/01/24 07:35:05;;;;;;;29.85;11.48;;;;;;;1.90;100.00;100418.97;5030863;28;20032;-66
2023/01/24 07:37:30;;;;;;;20.58;10.52;;;;;;;1.95;100.00;100419.50;5028065;28;20040;-66
2023/01/24 07:39:56;;;;;;;22.55;10.40;;;;;;;1.95;100.00;100411.50;5029372;28;20029;-66
2023/01/24 07:42:21;;;;;;;23.90;10.85;;;;;;;1.98;100.00;100429.97;5036140;28;20029;-66
2023/01/24 07:44:48;;;;;;;25.42;11.63;;;;;;;2.00;100.00;100432.53;5035840;28;20364;-66
2023/01/24 07:47:13;;;;;;;25.90;10.90;;;;;;;1.99;100.00;100441.47;5034504;28;20025;-66
2023/01/24 07:49:39;;;;;;;24.65;11.27;;;;;;;1.96;100.00;100439.03;5025084;28;20035;-66
2023/01/24 07:52:04;;;;;;;25.73;11.60;;;;;;;2.01;100.00;100436.06;5025418;28;20495;-66
2023/01/24 07:54:29;;;;;;;25.55;10.85;;;;;;;2.03;100.00;100440.31;5033278;28;20029;-69
2023/01/24 07:56:55;;;;;;;28.70;11.25;;;;;;;2.01;100.00;100441.41;5031052;28;20449;-69
2023/01/24 07:59:20;;;;;;;25.38;11.65;;;;;;;2.03;100.00;100431.47;5015118;28;20064;-69
2023/01/24 08:01:46;;;;;;;29.23;12.13;;;;;;;2.06;100.00;100447.25;5020716;28;20404;-69
2023/01/24 08:04:11;;;;;;;21.85;10.75;;;;;;;2.09;100.00;100439.88;5044511;28;20027;-69
2023/01/24 08:07:16;;;;;;;23.00;10.23;;;;;;;2.11;100.00;100443.31;5047132;28;20520;-69
2023/01/24 08:09:24;;;;;;;23.83;10.45;;;;;;;2.08;100.00;100448.00;5062981;28;20036;-68
2023/01/24 08:11:49;;;;;;;23.38;11.02;;;;;;;2.14;100.00;100453.75;5031117;28;20020;-69
2023/01/24 08:14:15;;;;;;;22.67;10.90;;;;;;;2.21;100.00;100462.19;5028686;28;20024;-69
2023/01/24 08:16:40;;;;;;;22.67;10.80;;;;;;;2.28;100.00;100463.47;5042005;28;20383;-69
2023/01/24 08:19:05;;;;;;;21.73;10.70;;;;;;;2.32;100.00;100467.63;5026742;28;20025;-69
2023/01/24 08:21:32;;;;;;;22.25;9.95;;;;;;;2.38;100.00;100472.53;5042650;28;20116;-69
2023/01/24 08:23:57;;;;;;;21.88;10.60;;;;;;;2.28;100.00;100470.59;5045839;28;20028;-69
2023/01/24 08:26:24;;;;;;;20.88;10.45;;;;;;;2.31;100.00;100479.28;5046183;28;20028;-69
2023/01/24 08:28:49;;;;;;;23.30;10.68;;;;;;;2.45;100.00;100477.44;5028825;28;20033;-69
2023/01/24 08:31:14;;;;;;;22.35;10.15;;;;;;;2.46;100.00;100471.13;5035431;28;20115;-69
2023/01/24 08:33:40;;;;;;;22.52;10.38;;;;;;;2.25;100.00;100426.28;5081034;22;20044;-76
2023/01/24 08:36:08;;;;;;;19.38;9.63;;;;;;;2.53;100.00;100480.41;5091528;28;20036;-78
2023/01/24 08:41:43;;;;;;;21.85;10.00;;;;;;;2.31;100.00;100428.53;5078808;28;20063;-80
2023/01/24 08:44:08;;;;;;;23.63;9.00;;;;;;;2.46;100.00;100455.09;5058669;28;20036;-80
2023/01/24 08:47:02;;;;;;;18.02;8.73;;;;;;;2.51;100.00;100466.28;5073609;28;20096;-77
2023/01/24 08:49:28;;;;;;;21.95;9.48;;;;;;;2.71;100.00;100486.25;5065469;28;20041;-80
2023/01/24 08:51:58;;;;;;;21.85;9.60;;;;;;;2.11;100.00;100400.59;5062241;28;20026;-79
2023/01/24 08:54:25;;;;;;;21.52;9.23;;;;;;;2.68;100.00;100486.47;5055438;28;20021;-80
2023/01/24 08:56:51;;;;;;;18.17;8.77;;;;;;;2.59;100.00;100475.50;5050685;28;20398;-81
2023/01/24 08:59:16;;;;;;;23.48;9.15;;;;;;;2.50;100.00;100467.28;5060998;28;20028;-81
2023/01/24 09:01:57;;;;;;;18.48;8.82;;;;;;;1.82;100.00;100367.97;5051912;28;20658;-83
2023/01/24 09:04:23;;;;;;;19.60;8.93;;;;;;;2.58;100.00;100494.28;5060937;28;20051;-80
2023/01/24 09:06:51;;;;;;;19.05;8.57;;;;;;;2.58;100.00;100491.63;5061684;28;20028;-81
2023/01/24 09:09:16;;;;;;;21.10;9.45;;;;;;;2.59;100.00;100493.31;5079080;28;20173;-80
2023/01/24 09:11:41;;;;;;;19.80;8.95;;;;;;;2.57;100.00;100487.25;5084060;28;20028;-80
2023/01/24 09:14:07;;;;;;;18.23;9.32;;;;;;;2.15;100.00;100418.09;5076356;28;20048;-82
2023/01/24 09:16:32;;;;;;;17.65;8.68;;;;;;;2.54;100.00;100496.34;5060288;28;20028;-78
2023/01/24 09:18:58;;;;;;;18.80;8.70;;;;;;;2.35;100.00;100456.72;5045850;28;20084;-78
2023/01/24 09:21:23;;;;;;;20.90;8.52;;;;;;;2.44;100.00;100478.38;5048828;28;20051;-76
2023/01/24 09:23:48;;;;;;;17.88;8.27;;;;;;;2.57;100.00;100498.78;5062882;28;20048;-78
2023/01/24 09:26:14;;;;;;;18.50;7.95;;;;;;;2.56;100.00;100499.72;5054483;28;20056;-80
2023/01/24 09:28:40;;;;;;;16.13;8.30;;;;;;;2.55;100.00;100489.16;5047594;28;20472;-74
2023/01/24 09:31:08;;;;;;;18.33;8.02;;;;;;;2.60;100.00;100506.56;5056346;28;20108;-75
2023/01/24 09:33:33;;;;;;;18.35;8.05;;;;;;;2.70;100.00;100506.78;5053767;28;20478;-74
2023/01/24 09:36:01;;;;;;;16.45;8.57;;;;;;;2.68;100.00;100494.47;5106893;22;20407;-71
2023/01/24 09:38:29;;;;;;;18.17;8.55;;;;;;;2.85;100.00;100518.16;5084549;28;20516;-70
2023/01/24 09:41:10;;;;;;;16.73;8.07;;;;;;;2.96;100.00;100509.34;5068879;28;20021;-71
2023/01/24 09:43:42;;;;;;;16.85;7.82;;;;;;;2.92;100.00;100507.88;5080451;28;20033;-71
2023/01/24 09:46:22;;;;;;;17.52;7.95;;;;;;;2.98;100.00;100512.75;5081704;28;20042;-71
2023/01/24 09:49:25;;;;;;;17.48;7.40;;;;;;;2.85;100.00;100512.81;5090539;28;20050;-77
2023/01/24 09:51:52;;;;;;;15.50;8.07;;;;;;;2.61;100.00;100446.81;5084542;28;20039;-77
2023/01/24 09:54:34;;;;;;;16.50;7.57;;;;;;;3.05;100.00;100516.69;5072759;28;20032;-74
2023/01/24 09:56:59;;;;;;;18.42;8.30;;;;;;;2.82;100.00;100492.50;5071759;28;20560;-74
2023/01/24 09:59:41;;;;;;;17.13;7.50;;;;;;;2.94;100.00;100509.47;5069275;28;20056;-71
2023/01/24 10:02:17;;;;;;;16.33;8.13;;;;;;;2.94;100.00;100495.25;5075725;28;20016;-72
2023/01/24 10:04:43;;;;;;;16.83;7.93;;;;;;;2.94;100.00;100500.59;5081136;28;20016;-73
2023/01/24 10:07:23;;;;;;;17.02;8.02;;;;;;;3.10;100.00;100511.88;5086273;28;20081;-73
2023/01/24 10:10:20;;;;;;;16.73;7.10;;;;;;;3.03;100.00;100500.75;5098242;28;20095;-73
2023/01/24 10:13:07;;;;;;;14.65;7.63;;;;;;;3.20;100.00;100512.03;5069249;28;20381;-72
2023/01/24 10:15:51;;;;;;;16.52;7.60;;;;;;;3.24;100.00;100503.66;5085066;28;20031;-73
2023/01/24 10:19:02;;;;;;;15.88;7.63;;;;;;;3.43;100.00;100496.91;5076020;28;20037;-75
2023/01/24 10:21:44;;;;;;;15.50;6.90;;;;;;;3.37;100.00;100502.75;5065073;28;20503;-75
2023/01/24 10:24:17;;;;;;;13.68;6.95;;;;;;;3.55;100.00;100485.28;5076428;28;20488;-81
2023/01/24 10:26:52;;;;;;;14.52;6.50;;;;;;;3.58;100.00;100473.50;5064375;28;20035;-79
2023/01/24 10:29:21;;;;;;;12.38;6.40;;;;;;;3.59;100.00;100493.94;5060993;28;20035;-79
2023/01/24 10:31:59;;;;;;;12.63;6.65;;;;;;;3.60;100.00;100487.63;5060806;28;20038;-78
2023/01/24 10:34:28;;;;;;;14.80;7.63;;;;;;;3.71;100.00;100495.69;5064750;28;20026;-77
2023/01/24 10:36:58;;;;;;;15.23;7.00;;;;;;;3.82;100.00;100494.84;5060310;28;20108;-78
2023/01/24 10:39:27;;;;;;;12.82;6.03;;;;;;;3.72;100.00;100476.84;5069615;28;20094;-78
2023/01/24 10:41:52;;;;;;;15.63;7.43;;;;;;;3.70;100.00;100481.44;5086400;28;20078;-78
2023/01/24 10:44:28;;;;;;;13.70;7.20;;;;;;;3.77;100.00;100484.50;5077986;28;20453;-78
2023/01/24 10:47:33;;;;;;;12.38;6.45;;;;;;;3.70;100.00;100452.00;5060189;28;20048;-77
2023/01/24 10:50:10;;;;;;;14.38;6.32;;;;;;;3.70;100.00;100433.28;5048150;28;20028;-79
2023/01/24 10:52:35;;;;;;;14.48;6.68;;;;;;;3.86;100.00;100466.88;5066255;28;20116;-79
2023/01/24 10:55:07;;;;;;;15.32;7.00;;;;;;;3.93;100.00;100465.44;5056586;28;20047;-72
2023/01/24 10:57:37;;;;;;;12.98;6.68;;;;;;;4.13;100.00;100488.81;5072528;28;20108;-71
2023/01/24 11:00:32;;;;;;;12.23;5.85;;;;;;;4.17;100.00;100476.91;5063529;28;20031;-72
2023/01/24 11:03:01;;;;;;;13.07;6.57;;;;;;;4.13;100.00;100485.28;5078835;28;20071;-73
2023/01/24 11:05:46;;;;;;;15.07;6.88;;;;;;;4.12;100.00;100478.25;5058562;28;20766;-70
2023/01/24 11:08:35;;;;;;;13.13;6.78;;;;;;;4.06;100.00;100470.66;5070887;28;20032;-72
2023/01/24 11:11:01;;;;;;;14.68;6.75;;;;;;;4.03;100.00;100463.72;5074032;28;20051;-72
2023/01/24 11:13:39;;;;;;;17.92;6.25;;;;;;;3.87;100.00;100463.22;5069326;28;20032;-72
2023/01/24 11:16:16;;;;;;;14.20;6.37;;;;;;;3.98;100.00;100481.13;5075438;28;20024;-71
2023/01/24 11:18:52;;;;;;;14.88;6.47;;;;;;;3.94;100.00;100473.34;5092498;28;20023;-73
2023/01/24 11:21:19;;;;;;;14.43;6.50;;;;;;;3.97;100.00;100484.78;5092601;28;20107;-73
2023/01/24 11:23:45;;;;;;;11.88;5.90;;;;;;;3.88;100.00;100471.16;5073379;28;20085;-72
2023/01/24 11:26:26;;;;;;;12.45;6.68;;;;;;;3.89;100.00;100483.56;5066670;28;20020;-72
2023/01/24 11:29:22;;;;;;;15.88;6.55;;;;;;;3.89;100.00;100486.22;5083140;28;20075;-72
2023/01/24 11:31:51;;;;;;;15.82;6.55;;;;;;;3.90;100.00;100474.56;5084593;28;20040;-72
2023/01/24 11:34:28;;;;;;;15.32;7.38;;;;;;;3.93;100.00;100477.00;5083607;28;20506;-72
2023/01/24 11:37:05;;;;;;;13.57;6.32;;;;;;;3.97;100.00;100477.59;5081207;28;20514;-71
2023/01/24 11:39:41;;;;;;;12.23;6.05;;;;;;;3.92;100.00;100461.03;5093585;28;20393;-72
2023/01/24 11:42:34;;;;;;;13.07;6.43;;;;;;;3.84;100.00;100455.44;5095610;28;20035;-73
2023/01/24 11:45:22;;;;;;;13.57;5.65;;;;;;;3.82;100.00;100435.94;5073670;28;20043;-72
2023/01/24 11:48:18;;;;;;;11.97;6.27;;;;;;;3.94;100.00;100454.59;5083145;28;20685;-72
2023/01/24 11:51:01;;;;;;;10.57;5.68;;;;;;;3.92;100.00;100461.03;5078869;28;20024;-72
2023/01/24 11:53:44;;;;;;;10.13;5.80;;;;;;;3.78;100.00;100442.53;5069988;28;20085;-74
2023/01/24 11:56:47;;;;;;;11.40;5.53;;;;;;;3.95;100.00;100456.28;5074847;28;20047;-72
2023/01/24 11:59:34;;;;;;;10.18;5.63;;;;;;;3.98;100.00;100457.88;5077851;28;20381;-72
2023/01/24 12:02:43;;;;;;;12.45;6.32;;;;;;;4.02;100.00;100456.66;5084743;28;20031;-74